JST98 WSSS-YPPH
Flight info
| Callsign | JST98 |
|---|---|
| Flight time | N/A |
| Altitude | 33000 |
| Route | ANITO7A ANITO B470 PKP L764 LAMOB B469 TOPIR L514 AVPAL Q38 JULIM |
| Aircraft | A21N/M-SDE2E3FGHIRWXY/LB1 |
Departure
| Time | 2026-05-03 23:37 |
|---|---|
| Airport | Singapore Changi Airport (WSSS) |
Arrival
| Time | N/A |
|---|---|
| Airport | Perth International Airport (YPPH) |
| Time | Latitude | Longitude | Altitude | Speed | Heading |
|---|---|---|---|---|---|
| 2026-05-03 23:19 | 1.35181 | 103.98857 | 38 ft | 0 kts | 290° |
| 2026-05-03 23:22 | 1.35179 | 103.98863 | 38 ft | 4 kts | 290° |
| 2026-05-03 23:22 | 1.35170 | 103.98888 | 38 ft | 4 kts | 289° |
| 2026-05-03 23:23 | 1.35162 | 103.98914 | 38 ft | 4 kts | 283° |
| 2026-05-03 23:23 | 1.35159 | 103.98940 | 38 ft | 4 kts | 256° |
| 2026-05-03 23:23 | 1.35168 | 103.98953 | 38 ft | 2 kts | 195° |
| 2026-05-03 23:26 | 1.35160 | 103.98951 | 38 ft | 2 kts | 195° |
| 2026-05-03 23:27 | 1.35141 | 103.98949 | 38 ft | 4 kts | 179° |
| 2026-05-03 23:27 | 1.35112 | 103.98952 | 38 ft | 5 kts | 175° |
| 2026-05-03 23:27 | 1.35071 | 103.98955 | 38 ft | 7 kts | 174° |
| 2026-05-03 23:27 | 1.35019 | 103.98963 | 38 ft | 8 kts | 171° |
| 2026-05-03 23:28 | 1.34962 | 103.98971 | 38 ft | 9 kts | 171° |
| 2026-05-03 23:28 | 1.34903 | 103.98989 | 38 ft | 9 kts | 141° |
| 2026-05-03 23:28 | 1.34863 | 103.99042 | 38 ft | 10 kts | 112° |
| 2026-05-03 23:28 | 1.34828 | 103.99104 | 37 ft | 11 kts | 152° |
| 2026-05-03 23:29 | 1.34754 | 103.99094 | 37 ft | 12 kts | 204° |
| 2026-05-03 23:29 | 1.34678 | 103.99061 | 38 ft | 12 kts | 202° |
| 2026-05-03 23:29 | 1.34597 | 103.99027 | 38 ft | 13 kts | 202° |
| 2026-05-03 23:29 | 1.34514 | 103.98993 | 39 ft | 13 kts | 202° |
| 2026-05-03 23:30 | 1.34426 | 103.98956 | 39 ft | 14 kts | 202° |
| 2026-05-03 23:30 | 1.34335 | 103.98918 | 36 ft | 14 kts | 203° |
| 2026-05-03 23:30 | 1.34273 | 103.98892 | 39 ft | 15 kts | 203° |
| 2026-05-03 23:30 | 1.34178 | 103.98852 | 38 ft | 15 kts | 203° |
| 2026-05-03 23:31 | 1.34079 | 103.98810 | 38 ft | 16 kts | 202° |
| 2026-05-03 23:31 | 1.33978 | 103.98769 | 38 ft | 16 kts | 202° |
| 2026-05-03 23:31 | 1.33875 | 103.98725 | 38 ft | 16 kts | 202° |
| 2026-05-03 23:31 | 1.33769 | 103.98681 | 35 ft | 17 kts | 202° |
| 2026-05-03 23:32 | 1.33662 | 103.98635 | 38 ft | 17 kts | 204° |
| 2026-05-03 23:32 | 1.33553 | 103.98587 | 38 ft | 17 kts | 204° |
| 2026-05-03 23:32 | 1.33441 | 103.98541 | 38 ft | 18 kts | 201° |
| 2026-05-03 23:32 | 1.33327 | 103.98494 | 38 ft | 18 kts | 202° |
| 2026-05-03 23:33 | 1.33211 | 103.98446 | 38 ft | 18 kts | 203° |
| 2026-05-03 23:33 | 1.33112 | 103.98403 | 38 ft | 15 kts | 202° |
| 2026-05-03 23:33 | 1.33018 | 103.98365 | 38 ft | 13 kts | 201° |
| 2026-05-03 23:33 | 1.32951 | 103.98386 | 38 ft | 0 kts | 112° |
| 2026-05-03 23:35 | 1.32945 | 103.98400 | 38 ft | 7 kts | 114° |
| 2026-05-03 23:35 | 1.32924 | 103.98445 | 38 ft | 8 kts | 114° |
| 2026-05-03 23:36 | 1.32920 | 103.98500 | 38 ft | 9 kts | 61° |
| 2026-05-03 23:36 | 1.32975 | 103.98534 | 38 ft | 10 kts | 25° |
| 2026-05-03 23:36 | 1.33130 | 103.98600 | 38 ft | 57 kts | 22° |
| 2026-05-03 23:36 | 1.33728 | 103.98853 | 37 ft | 127 kts | 22° |
| 2026-05-03 23:37 | 1.34728 | 103.99276 | 37 ft | 181 kts | 24° |
| 2026-05-03 23:37 | 1.35895 | 103.99825 | 626 ft | 177 kts | 26° |
| 2026-05-03 23:37 | 1.37004 | 104.00304 | 1235 ft | 181 kts | 20° |
| 2026-05-03 23:37 | 1.38258 | 104.00795 | 1563 ft | 204 kts | 22° |
| 2026-05-03 23:38 | 1.39617 | 104.01356 | 1996 ft | 218 kts | 22° |
| 2026-05-03 23:38 | 1.41086 | 104.01975 | 2315 ft | 240 kts | 22° |
| 2026-05-03 23:38 | 1.42691 | 104.02651 | 2670 ft | 259 kts | 22° |
| 2026-05-03 23:38 | 1.44379 | 104.03362 | 3267 ft | 266 kts | 22° |
| 2026-05-03 23:39 | 1.46066 | 104.04146 | 3930 ft | 270 kts | 31° |
| 2026-05-03 23:39 | 1.47416 | 104.05436 | 4575 ft | 273 kts | 58° |
| 2026-05-03 23:39 | 1.48021 | 104.07231 | 5183 ft | 277 kts | 86° |
| 2026-05-03 23:39 | 1.47723 | 104.09126 | 5792 ft | 280 kts | 111° |
| 2026-05-03 23:40 | 1.46896 | 104.10894 | 6430 ft | 283 kts | 117° |
| 2026-05-03 23:40 | 1.46010 | 104.12634 | 7035 ft | 285 kts | 117° |
| 2026-05-03 23:40 | 1.45125 | 104.14416 | 7669 ft | 287 kts | 116° |
| 2026-05-03 23:40 | 1.44250 | 104.16223 | 8297 ft | 290 kts | 115° |
| 2026-05-03 23:41 | 1.43378 | 104.18052 | 8733 ft | 292 kts | 115° |
| 2026-05-03 23:41 | 1.42510 | 104.19899 | 8893 ft | 293 kts | 115° |
| 2026-05-03 23:41 | 1.41650 | 104.21747 | 8907 ft | 293 kts | 115° |
| 2026-05-03 23:41 | 1.40794 | 104.23592 | 8897 ft | 293 kts | 115° |
| 2026-05-03 23:42 | 1.39938 | 104.25443 | 8897 ft | 293 kts | 115° |
| 2026-05-03 23:42 | 1.39082 | 104.27298 | 8890 ft | 293 kts | 115° |
| 2026-05-03 23:42 | 1.38227 | 104.29148 | 8887 ft | 293 kts | 115° |
| 2026-05-03 23:42 | 1.37379 | 104.30977 | 8888 ft | 293 kts | 115° |
| 2026-05-03 23:43 | 1.36522 | 104.32826 | 8892 ft | 293 kts | 115° |
| 2026-05-03 23:43 | 1.35666 | 104.34676 | 8889 ft | 293 kts | 115° |
| 2026-05-03 23:43 | 1.34809 | 104.36530 | 8892 ft | 293 kts | 115° |
| 2026-05-03 23:43 | 1.33951 | 104.38378 | 8889 ft | 293 kts | 116° |
| 2026-05-03 23:44 | 1.32821 | 104.40059 | 8877 ft | 292 kts | 137° |
| 2026-05-03 23:44 | 1.31101 | 104.41109 | 8889 ft | 292 kts | 161° |